Watersmeet, MI (49969)

4:33 AM CDT on March 30, 2015 (GMT -0500)
Misery Bay Boat Launch | | Change Station
CLOSE
Current Station
Personal Weather Station
Location: Watersmeet, MI
Elevation: 1685 ft
Nearby Weather Stations

Elev 1685 ft 46.16 °N, 89.12 °W | Updated 3 minutes ago

Partly Cloudy
Partly Cloudy
31.1 °F
Feels Like 31 °F
N
0.0
Wind Variable Wind from WSW

Today
High -- | Low -- °F
--% Chance of Precip.
Yesterday
High -- | Low -- °F
Precip. -- in
6:40 AM 7:22 PM
Waxing Gibbous, 78% visible
Pressure 29.77 in
Visibility 10.0 miles
Clouds Clear
Windchill 31 °F
Dew Point 27 °F
Humidity 86%
Rainfall 0.00 in
Snow Depth Not available.
UV 0 out of 12
Pollen 2.30 out of 12
Air Quality Not available.
Flu Activity Not available.
METAR KLNL 300915Z AUTO 27007KT 10SM CLR 01/M03 A2977 RMK AO2 T00051031

More Conditions Fewer Conditions

Pressure 29.77 in
Visibility 10.0 miles
Clouds Clear
Windchill 31 °F
Dew Point 27 °F
Humidity 86%
Rainfall 0.00 in
Snow Depth Not available.
UV 0 out of 12
Pollen 2.30 out of 12
Air Quality Not available.
Flu Activity Not available.
METAR KLNL 300915Z AUTO 27007KT 10SM CLR 01/M03 A2977 RMK AO2 T00051031

More Conditions Fewer Conditions

10-Day Weather Forecast

Almanac

Astronomy

Mar. 30, 2015 Rise Set
Actual Time
Civil Twilight
Nautical Twilight
Astronomical Twilight
Moon
Length of Visible Light
Length of Day
Tomorrow will be .
, % of the Moon is Illuminated

Today's Extremes

State Highs State Lows

Community

WunderPhotos

Upload Photos

1,809,451 photos uploaded!

WunderBlogs® & News

Nearby

Air Quality

  Air Quality AQ Index Pollutant
Not available.

Snow Depth

Station Depth Elevation

Earthquake Activity

City Distance Mag. Time & Date
Minimum magnitude displayed is 2.5.

Coastal Water Temperatures

Place Temperature

Stations

Nearby Weather Stations

Station Location Temp. Windchill Dew Point Humidity Wind Precip. Elev Updated Type